CheckWX is a tool to help pilots better visualize weather data.  It is not intended as a substitute for an official pre-flight weather briefing.

20:42:31 UTC

KLAN METAR
Capital Region International Airport
Lansing, Michigan, USA
Current

50 mins ago

KLAN 261953Z 28012G20KT 10SM CLR 29/14 A3007 RMK AO2 SLP177 T02890139
Observed
Jun-26 @ 19:53 UTC
Wind
  • 280° at 12 KTS
  • Gusting to 20 KTS
Visibility
10 SM
Flight Rules
VFR
Cloud Levels
  • Clear skies
Temperature
29°C / 84°F
Dewpoint
14°C / 57°F
Heat Index
28°C / 83°F
Humidity
40%
Altimeter
30.07" Hg
Pressure
1018.32 hPa
Previous

2 hours ago

KLAN 261853Z 24011G17KT 10SM SCT060 27/14 A3008 RMK AO2 SLP180 T02720144
Observed
Jun-26 @ 18:53 UTC
Wind
  • 240° at 11 KTS
  • Gusting to 17 KTS
Visibility
10 SM
Flight Rules
VFR
Cloud Levels
  • Scattered at 6,000' AGL
Temperature
27°C / 81°F
Dewpoint
14°C / 57°F
Heat Index
27°C / 81°F
Humidity
45%
Altimeter
30.08" Hg
Pressure
1018.62 hPa
Previous

3 hours ago

KLAN 261753Z 29007G19KT 10SM CLR 27/14 A3007 RMK AO2 SLP178 T02720144 10278 20206 50003
Observed
Jun-26 @ 17:53 UTC
Wind
  • 290° at 7 KTS
  • Gusting to 19 KTS
Visibility
10 SM
Flight Rules
VFR
Cloud Levels
  • Clear skies
Temperature
27°C / 81°F
Dewpoint
14°C / 57°F
Heat Index
27°C / 81°F
Humidity
45%
Altimeter
30.07" Hg
Pressure
1018.32 hPa